sensor_id;sensor_type;location;lat;lon;timestamp;P1;durP1;ratioP1;P2;durP2;ratioP2
36799;SDS011;22752;51.960;5.886;2023-08-07T00:00:05;10.77;;;2.78;;
36799;SDS011;22752;51.960;5.886;2023-08-07T00:02:34;9.38;;;2.45;;
36799;SDS011;22752;51.960;5.886;2023-08-07T00:05:00;9.80;;;2.47;;
36799;SDS011;22752;51.960;5.886;2023-08-07T00:07:25;9.82;;;3.05;;
36799;SDS011;22752;51.960;5.886;2023-08-07T00:09:51;10.40;;;2.40;;
36799;SDS011;22752;51.960;5.886;2023-08-07T00:12:17;11.57;;;2.40;;
36799;SDS011;22752;51.960;5.886;2023-08-07T00:14:42;8.23;;;2.28;;
36799;SDS011;22752;51.960;5.886;2023-08-07T00:17:08;8.32;;;2.40;;
36799;SDS011;22752;51.960;5.886;2023-08-07T00:19:34;9.55;;;2.67;;
36799;SDS011;22752;51.960;5.886;2023-08-07T00:21:59;5.20;;;1.60;;
36799;SDS011;22752;51.960;5.886;2023-08-07T00:24:25;6.45;;;1.73;;
36799;SDS011;22752;51.960;5.886;2023-08-07T00:26:51;6.65;;;1.85;;
36799;SDS011;22752;51.960;5.886;2023-08-07T00:29:16;7.20;;;1.80;;
36799;SDS011;22752;51.960;5.886;2023-08-07T00:31:42;3.95;;;1.40;;
36799;SDS011;22752;51.960;5.886;2023-08-07T00:34:07;6.45;;;1.45;;
36799;SDS011;22752;51.960;5.886;2023-08-07T00:36:34;9.10;;;1.50;;
36799;SDS011;22752;51.960;5.886;2023-08-07T00:39:00;7.38;;;1.75;;
36799;SDS011;22752;51.960;5.886;2023-08-07T00:41:28;5.22;;;1.38;;
36799;SDS011;22752;51.960;5.886;2023-08-07T00:43:54;5.25;;;1.58;;
36799;SDS011;22752;51.960;5.886;2023-08-07T00:46:20;3.55;;;1.55;;
36799;SDS011;22752;51.960;5.886;2023-08-07T00:48:46;7.28;;;1.95;;
36799;SDS011;22752;51.960;5.886;2023-08-07T00:51:12;6.90;;;1.70;;
36799;SDS011;22752;51.960;5.886;2023-08-07T00:53:38;6.30;;;1.88;;
36799;SDS011;22752;51.960;5.886;2023-08-07T00:56:04;8.45;;;2.00;;
36799;SDS011;22752;51.960;5.886;2023-08-07T00:58:31;15.13;;;2.60;;
36799;SDS011;22752;51.960;5.886;2023-08-07T01:00:57;6.43;;;1.98;;
36799;SDS011;22752;51.960;5.886;2023-08-07T01:03:23;13.50;;;2.40;;
36799;SDS011;22752;51.960;5.886;2023-08-07T01:05:49;10.48;;;2.80;;
36799;SDS011;22752;51.960;5.886;2023-08-07T01:08:15;9.93;;;2.28;;
36799;SDS011;22752;51.960;5.886;2023-08-07T01:16:37;11.73;;;2.50;;
36799;SDS011;22752;51.960;5.886;2023-08-07T01:19:34;8.70;;;2.40;;
36799;SDS011;22752;51.960;5.886;2023-08-07T01:24:37;9.60;;;2.60;;
36799;SDS011;22752;51.960;5.886;2023-08-07T01:35:33;12.63;;;2.90;;
36799;SDS011;22752;51.960;5.886;2023-08-07T01:38:01;11.52;;;3.08;;
36799;SDS011;22752;51.960;5.886;2023-08-07T01:40:28;12.52;;;2.75;;
36799;SDS011;22752;51.960;5.886;2023-08-07T01:42:54;11.57;;;2.67;;
36799;SDS011;22752;51.960;5.886;2023-08-07T01:45:22;10.80;;;2.92;;
36799;SDS011;22752;51.960;5.886;2023-08-07T01:47:49;22.42;;;3.50;;
36799;SDS011;22752;51.960;5.886;2023-08-07T01:50:14;10.45;;;2.90;;
36799;SDS011;22752;51.960;5.886;2023-08-07T01:52:40;14.75;;;3.53;;
36799;SDS011;22752;51.960;5.886;2023-08-07T01:55:06;18.83;;;3.95;;
36799;SDS011;22752;51.960;5.886;2023-08-07T01:57:32;18.05;;;3.83;;
36799;SDS011;22752;51.960;5.886;2023-08-07T01:59:57;11.45;;;3.40;;
36799;SDS011;22752;51.960;5.886;2023-08-07T02:02:23;13.95;;;3.83;;
36799;SDS011;22752;51.960;5.886;2023-08-07T02:04:49;17.20;;;4.07;;
36799;SDS011;22752;51.960;5.886;2023-08-07T02:07:14;12.60;;;3.63;;
36799;SDS011;22752;51.960;5.886;2023-08-07T02:09:40;11.80;;;3.70;;
36799;SDS011;22752;51.960;5.886;2023-08-07T02:12:06;14.85;;;3.63;;
36799;SDS011;22752;51.960;5.886;2023-08-07T02:14:32;14.13;;;3.67;;
36799;SDS011;22752;51.960;5.886;2023-08-07T02:16:57;11.07;;;3.20;;
36799;SDS011;22752;51.960;5.886;2023-08-07T02:19:23;16.02;;;3.78;;
36799;SDS011;22752;51.960;5.886;2023-08-07T02:21:49;15.90;;;3.60;;
36799;SDS011;22752;51.960;5.886;2023-08-07T02:24:14;12.40;;;3.45;;
36799;SDS011;22752;51.960;5.886;2023-08-07T02:26:40;14.38;;;3.63;;
36799;SDS011;22752;51.960;5.886;2023-08-07T02:29:06;12.50;;;3.35;;
36799;SDS011;22752;51.960;5.886;2023-08-07T02:31:34;18.52;;;4.13;;
36799;SDS011;22752;51.960;5.886;2023-08-07T02:33:59;15.77;;;3.70;;
36799;SDS011;22752;51.960;5.886;2023-08-07T02:36:25;12.02;;;3.53;;
36799;SDS011;22752;51.960;5.886;2023-08-07T02:38:50;17.73;;;4.18;;
36799;SDS011;22752;51.960;5.886;2023-08-07T02:41:16;11.90;;;3.67;;
36799;SDS011;22752;51.960;5.886;2023-08-07T02:43:42;13.38;;;3.70;;
36799;SDS011;22752;51.960;5.886;2023-08-07T02:46:08;18.50;;;3.80;;
36799;SDS011;22752;51.960;5.886;2023-08-07T02:48:33;10.90;;;3.20;;
36799;SDS011;22752;51.960;5.886;2023-08-07T02:50:59;12.07;;;3.45;;
36799;SDS011;22752;51.960;5.886;2023-08-07T02:53:25;14.65;;;3.85;;
36799;SDS011;22752;51.960;5.886;2023-08-07T02:55:50;14.85;;;3.60;;
36799;SDS011;22752;51.960;5.886;2023-08-07T02:58:16;13.02;;;3.20;;
36799;SDS011;22752;51.960;5.886;2023-08-07T03:00:41;11.68;;;3.35;;
36799;SDS011;22752;51.960;5.886;2023-08-07T03:03:08;14.07;;;3.30;;
36799;SDS011;22752;51.960;5.886;2023-08-07T03:05:34;17.08;;;3.92;;
36799;SDS011;22752;51.960;5.886;2023-08-07T03:07:59;13.45;;;3.47;;
36799;SDS011;22752;51.960;5.886;2023-08-07T03:10:25;14.80;;;3.55;;
36799;SDS011;22752;51.960;5.886;2023-08-07T03:12:51;13.32;;;3.40;;
36799;SDS011;22752;51.960;5.886;2023-08-07T03:15:16;14.23;;;3.58;;
36799;SDS011;22752;51.960;5.886;2023-08-07T03:17:42;11.88;;;3.10;;
36799;SDS011;22752;51.960;5.886;2023-08-07T03:20:08;15.48;;;3.90;;
36799;SDS011;22752;51.960;5.886;2023-08-07T03:22:34;8.52;;;3.20;;
36799;SDS011;22752;51.960;5.886;2023-08-07T03:25:00;20.25;;;3.95;;
36799;SDS011;22752;51.960;5.886;2023-08-07T03:27:26;11.85;;;3.35;;
36799;SDS011;22752;51.960;5.886;2023-08-07T03:29:51;13.00;;;3.50;;
36799;SDS011;22752;51.960;5.886;2023-08-07T03:32:17;13.95;;;3.70;;
36799;SDS011;22752;51.960;5.886;2023-08-07T03:34:43;14.33;;;3.90;;
36799;SDS011;22752;51.960;5.886;2023-08-07T03:37:09;11.20;;;3.72;;
36799;SDS011;22752;51.960;5.886;2023-08-07T03:39:34;15.68;;;3.85;;
36799;SDS011;22752;51.960;5.886;2023-08-07T03:42:00;13.77;;;3.85;;
36799;SDS011;22752;51.960;5.886;2023-08-07T03:44:26;10.88;;;3.25;;
36799;SDS011;22752;51.960;5.886;2023-08-07T03:46:51;11.55;;;3.20;;
36799;SDS011;22752;51.960;5.886;2023-08-07T03:49:17;9.75;;;3.28;;
36799;SDS011;22752;51.960;5.886;2023-08-07T03:51:43;13.98;;;3.80;;
36799;SDS011;22752;51.960;5.886;2023-08-07T03:54:08;13.77;;;3.63;;
36799;SDS011;22752;51.960;5.886;2023-08-07T03:56:34;15.45;;;3.75;;
36799;SDS011;22752;51.960;5.886;2023-08-07T03:59:02;11.10;;;3.40;;
36799;SDS011;22752;51.960;5.886;2023-08-07T04:01:28;10.07;;;3.40;;
36799;SDS011;22752;51.960;5.886;2023-08-07T04:03:54;14.65;;;3.60;;
36799;SDS011;22752;51.960;5.886;2023-08-07T04:06:20;12.43;;;4.03;;
36799;SDS011;22752;51.960;5.886;2023-08-07T04:08:46;11.07;;;3.42;;
36799;SDS011;22752;51.960;5.886;2023-08-07T04:11:12;11.13;;;3.15;;
36799;SDS011;22752;51.960;5.886;2023-08-07T04:13:38;11.77;;;3.25;;
36799;SDS011;22752;51.960;5.886;2023-08-07T04:16:03;10.25;;;2.92;;
36799;SDS011;22752;51.960;5.886;2023-08-07T04:18:30;11.77;;;2.83;;
36799;SDS011;22752;51.960;5.886;2023-08-07T04:20:56;11.93;;;2.97;;
36799;SDS011;22752;51.960;5.886;2023-08-07T04:23:23;11.93;;;2.90;;
36799;SDS011;22752;51.960;5.886;2023-08-07T04:25:49;8.18;;;2.65;;
36799;SDS011;22752;51.960;5.886;2023-08-07T04:28:16;11.82;;;3.13;;
36799;SDS011;22752;51.960;5.886;2023-08-07T04:30:42;14.23;;;3.03;;
36799;SDS011;22752;51.960;5.886;2023-08-07T04:33:08;7.32;;;2.50;;
36799;SDS011;22752;51.960;5.886;2023-08-07T04:35:34;13.35;;;3.25;;
36799;SDS011;22752;51.960;5.886;2023-08-07T04:38:00;9.88;;;2.75;;
36799;SDS011;22752;51.960;5.886;2023-08-07T04:40:27;8.13;;;2.88;;
36799;SDS011;22752;51.960;5.886;2023-08-07T04:42:53;12.23;;;3.17;;
36799;SDS011;22752;51.960;5.886;2023-08-07T04:45:19;10.02;;;3.03;;
36799;SDS011;22752;51.960;5.886;2023-08-07T04:47:45;8.57;;;3.13;;
36799;SDS011;22752;51.960;5.886;2023-08-07T04:50:11;10.48;;;2.95;;
36799;SDS011;22752;51.960;5.886;2023-08-07T04:52:36;11.63;;;3.63;;
36799;SDS011;22752;51.960;5.886;2023-08-07T04:55:02;16.65;;;3.55;;
36799;SDS011;22752;51.960;5.886;2023-08-07T04:57:29;11.90;;;3.58;;
36799;SDS011;22752;51.960;5.886;2023-08-07T04:59:54;9.05;;;2.97;;
36799;SDS011;22752;51.960;5.886;2023-08-07T05:02:20;8.55;;;3.20;;
36799;SDS011;22752;51.960;5.886;2023-08-07T05:04:46;9.77;;;3.05;;
36799;SDS011;22752;51.960;5.886;2023-08-07T05:07:11;9.65;;;3.15;;
36799;SDS011;22752;51.960;5.886;2023-08-07T05:09:37;10.15;;;3.42;;
36799;SDS011;22752;51.960;5.886;2023-08-07T05:12:03;9.77;;;4.05;;
36799;SDS011;22752;51.960;5.886;2023-08-07T05:14:29;9.85;;;3.45;;
36799;SDS011;22752;51.960;5.886;2023-08-07T05:16:55;12.32;;;4.10;;
36799;SDS011;22752;51.960;5.886;2023-08-07T05:19:21;11.60;;;3.78;;
36799;SDS011;22752;51.960;5.886;2023-08-07T05:21:47;10.27;;;3.38;;
36799;SDS011;22752;51.960;5.886;2023-08-07T05:24:15;15.70;;;4.70;;
36799;SDS011;22752;51.960;5.886;2023-08-07T05:26:42;16.38;;;4.70;;
36799;SDS011;22752;51.960;5.886;2023-08-07T05:29:07;14.35;;;3.88;;
36799;SDS011;22752;51.960;5.886;2023-08-07T05:31:33;16.13;;;4.28;;
36799;SDS011;22752;51.960;5.886;2023-08-07T05:33:59;14.88;;;4.05;;
36799;SDS011;22752;51.960;5.886;2023-08-07T05:36:25;21.88;;;4.35;;
36799;SDS011;22752;51.960;5.886;2023-08-07T05:38:50;14.13;;;4.00;;
36799;SDS011;22752;51.960;5.886;2023-08-07T05:41:16;12.80;;;3.85;;
36799;SDS011;22752;51.960;5.886;2023-08-07T05:43:42;21.15;;;4.55;;
36799;SDS011;22752;51.960;5.886;2023-08-07T05:46:07;15.82;;;4.15;;
36799;SDS011;22752;51.960;5.886;2023-08-07T05:48:33;16.13;;;4.50;;
36799;SDS011;22752;51.960;5.886;2023-08-07T05:50:59;10.73;;;3.92;;
36799;SDS011;22752;51.960;5.886;2023-08-07T05:53:25;13.02;;;3.83;;
36799;SDS011;22752;51.960;5.886;2023-08-07T05:55:50;13.57;;;3.60;;
36799;SDS011;22752;51.960;5.886;2023-08-07T05:58:16;16.98;;;4.07;;
36799;SDS011;22752;51.960;5.886;2023-08-07T06:00:41;20.30;;;4.75;;
36799;SDS011;22752;51.960;5.886;2023-08-07T06:03:07;13.52;;;4.13;;
36799;SDS011;22752;51.960;5.886;2023-08-07T06:05:33;9.68;;;3.83;;
36799;SDS011;22752;51.960;5.886;2023-08-07T06:08:00;11.75;;;3.85;;
36799;SDS011;22752;51.960;5.886;2023-08-07T06:10:26;10.52;;;3.35;;
36799;SDS011;22752;51.960;5.886;2023-08-07T06:12:52;14.40;;;3.45;;
36799;SDS011;22752;51.960;5.886;2023-08-07T06:15:18;12.02;;;3.63;;
36799;SDS011;22752;51.960;5.886;2023-08-07T06:17:45;15.40;;;3.95;;
36799;SDS011;22752;51.960;5.886;2023-08-07T06:20:10;14.43;;;4.47;;
36799;SDS011;22752;51.960;5.886;2023-08-07T06:22:39;13.63;;;4.15;;
36799;SDS011;22752;51.960;5.886;2023-08-07T06:25:05;12.45;;;3.83;;
36799;SDS011;22752;51.960;5.886;2023-08-07T06:27:31;10.95;;;3.72;;
36799;SDS011;22752;51.960;5.886;2023-08-07T06:29:57;14.00;;;3.67;;
36799;SDS011;22752;51.960;5.886;2023-08-07T06:32:24;13.77;;;3.78;;
36799;SDS011;22752;51.960;5.886;2023-08-07T06:34:50;14.35;;;4.13;;
36799;SDS011;22752;51.960;5.886;2023-08-07T06:37:16;14.10;;;3.88;;
36799;SDS011;22752;51.960;5.886;2023-08-07T06:39:41;12.13;;;3.75;;
36799;SDS011;22752;51.960;5.886;2023-08-07T06:42:07;12.20;;;3.90;;
36799;SDS011;22752;51.960;5.886;2023-08-07T06:44:33;13.48;;;4.00;;
36799;SDS011;22752;51.960;5.886;2023-08-07T06:46:59;12.55;;;3.75;;
36799;SDS011;22752;51.960;5.886;2023-08-07T06:49:24;8.57;;;3.30;;
36799;SDS011;22752;51.960;5.886;2023-08-07T06:51:50;12.20;;;3.53;;
36799;SDS011;22752;51.960;5.886;2023-08-07T06:54:15;17.23;;;4.80;;
36799;SDS011;22752;51.960;5.886;2023-08-07T06:56:41;14.32;;;3.65;;
36799;SDS011;22752;51.960;5.886;2023-08-07T06:59:08;21.33;;;4.10;;
36799;SDS011;22752;51.960;5.886;2023-08-07T07:01:33;17.10;;;4.25;;
36799;SDS011;22752;51.960;5.886;2023-08-07T07:03:59;14.45;;;3.97;;
36799;SDS011;22752;51.960;5.886;2023-08-07T07:06:25;12.88;;;3.33;;
36799;SDS011;22752;51.960;5.886;2023-08-07T07:08:51;11.43;;;3.00;;
36799;SDS011;22752;51.960;5.886;2023-08-07T07:11:19;12.77;;;3.55;;
36799;SDS011;22752;51.960;5.886;2023-08-07T07:13:46;9.02;;;3.38;;
36799;SDS011;22752;51.960;5.886;2023-08-07T07:16:11;13.95;;;3.13;;
36799;SDS011;22752;51.960;5.886;2023-08-07T07:18:38;15.70;;;3.65;;
36799;SDS011;22752;51.960;5.886;2023-08-07T07:21:04;9.93;;;2.90;;
36799;SDS011;22752;51.960;5.886;2023-08-07T07:23:30;14.80;;;3.25;;
36799;SDS011;22752;51.960;5.886;2023-08-07T07:25:55;13.07;;;3.10;;
36799;SDS011;22752;51.960;5.886;2023-08-07T07:28:22;11.13;;;3.17;;
36799;SDS011;22752;51.960;5.886;2023-08-07T07:30:49;10.75;;;2.88;;
36799;SDS011;22752;51.960;5.886;2023-08-07T07:33:15;10.93;;;3.03;;
36799;SDS011;22752;51.960;5.886;2023-08-07T07:35:41;9.30;;;2.90;;
36799;SDS011;22752;51.960;5.886;2023-08-07T07:38:08;11.15;;;3.00;;
36799;SDS011;22752;51.960;5.886;2023-08-07T07:40:35;13.73;;;3.38;;
36799;SDS011;22752;51.960;5.886;2023-08-07T07:43:01;13.25;;;3.33;;
36799;SDS011;22752;51.960;5.886;2023-08-07T07:45:27;15.23;;;3.95;;
36799;SDS011;22752;51.960;5.886;2023-08-07T07:47:53;16.45;;;3.63;;
36799;SDS011;22752;51.960;5.886;2023-08-07T07:50:18;13.63;;;3.88;;
36799;SDS011;22752;51.960;5.886;2023-08-07T07:52:44;12.52;;;3.13;;
36799;SDS011;22752;51.960;5.886;2023-08-07T07:55:09;14.38;;;3.78;;
36799;SDS011;22752;51.960;5.886;2023-08-07T07:57:37;13.05;;;2.95;;
36799;SDS011;22752;51.960;5.886;2023-08-07T08:00:02;12.55;;;3.33;;
36799;SDS011;22752;51.960;5.886;2023-08-07T08:02:32;12.30;;;3.30;;
36799;SDS011;22752;51.960;5.886;2023-08-07T08:04:58;13.10;;;3.80;;
36799;SDS011;22752;51.960;5.886;2023-08-07T08:07:23;11.43;;;3.40;;
36799;SDS011;22752;51.960;5.886;2023-08-07T08:09:50;12.77;;;3.63;;
36799;SDS011;22752;51.960;5.886;2023-08-07T08:12:16;9.82;;;3.63;;
36799;SDS011;22752;51.960;5.886;2023-08-07T08:14:41;10.82;;;3.40;;
36799;SDS011;22752;51.960;5.886;2023-08-07T08:17:07;10.80;;;3.50;;
36799;SDS011;22752;51.960;5.886;2023-08-07T08:19:33;11.18;;;2.92;;
36799;SDS011;22752;51.960;5.886;2023-08-07T08:21:58;13.40;;;3.45;;
36799;SDS011;22752;51.960;5.886;2023-08-07T08:24:24;9.18;;;2.90;;
36799;SDS011;22752;51.960;5.886;2023-08-07T08:26:50;11.93;;;3.33;;
36799;SDS011;22752;51.960;5.886;2023-08-07T08:29:15;8.95;;;2.92;;
36799;SDS011;22752;51.960;5.886;2023-08-07T08:31:41;10.40;;;3.10;;
36799;SDS011;22752;51.960;5.886;2023-08-07T08:34:07;15.02;;;3.85;;
36799;SDS011;22752;51.960;5.886;2023-08-07T08:36:32;11.73;;;2.88;;
36799;SDS011;22752;51.960;5.886;2023-08-07T08:38:58;10.55;;;3.00;;
36799;SDS011;22752;51.960;5.886;2023-08-07T08:41:23;10.05;;;3.33;;
36799;SDS011;22752;51.960;5.886;2023-08-07T08:43:51;7.03;;;2.50;;
36799;SDS011;22752;51.960;5.886;2023-08-07T08:46:20;12.90;;;3.45;;
36799;SDS011;22752;51.960;5.886;2023-08-07T08:48:54;9.95;;;3.08;;
36799;SDS011;22752;51.960;5.886;2023-08-07T08:51:22;9.63;;;3.22;;
36799;SDS011;22752;51.960;5.886;2023-08-07T08:53:51;10.57;;;2.80;;
36799;SDS011;22752;51.960;5.886;2023-08-07T08:56:18;10.93;;;3.17;;
36799;SDS011;22752;51.960;5.886;2023-08-07T08:58:47;12.43;;;3.05;;
36799;SDS011;22752;51.960;5.886;2023-08-07T09:01:13;8.77;;;2.80;;
36799;SDS011;22752;51.960;5.886;2023-08-07T09:03:39;10.18;;;2.90;;
36799;SDS011;22752;51.960;5.886;2023-08-07T09:06:06;14.15;;;3.95;;
36799;SDS011;22752;51.960;5.886;2023-08-07T09:08:32;10.25;;;3.67;;
36799;SDS011;22752;51.960;5.886;2023-08-07T09:10:59;11.23;;;3.08;;
36799;SDS011;22752;51.960;5.886;2023-08-07T09:13:25;8.85;;;3.00;;
36799;SDS011;22752;51.960;5.886;2023-08-07T09:15:53;11.82;;;3.13;;
36799;SDS011;22752;51.960;5.886;2023-08-07T09:18:19;13.45;;;3.35;;
36799;SDS011;22752;51.960;5.886;2023-08-07T09:20:45;11.98;;;3.50;;
36799;SDS011;22752;51.960;5.886;2023-08-07T09:23:11;10.48;;;3.50;;
36799;SDS011;22752;51.960;5.886;2023-08-07T09:25:36;10.68;;;3.47;;
36799;SDS011;22752;51.960;5.886;2023-08-07T09:28:03;12.05;;;3.45;;
36799;SDS011;22752;51.960;5.886;2023-08-07T09:30:31;10.63;;;2.97;;
36799;SDS011;22752;51.960;5.886;2023-08-07T09:32:58;13.85;;;3.15;;
36799;SDS011;22752;51.960;5.886;2023-08-07T09:35:24;16.25;;;3.40;;
36799;SDS011;22752;51.960;5.886;2023-08-07T09:37:50;12.68;;;2.85;;
36799;SDS011;22752;51.960;5.886;2023-08-07T09:40:17;13.13;;;3.22;;
36799;SDS011;22752;51.960;5.886;2023-08-07T09:42:43;12.32;;;2.97;;
36799;SDS011;22752;51.960;5.886;2023-08-07T09:45:18;12.63;;;2.50;;
36799;SDS011;22752;51.960;5.886;2023-08-07T09:47:46;12.73;;;2.83;;
36799;SDS011;22752;51.960;5.886;2023-08-07T09:50:15;9.20;;;2.80;;
36799;SDS011;22752;51.960;5.886;2023-08-07T09:52:48;14.43;;;3.00;;
36799;SDS011;22752;51.960;5.886;2023-08-07T09:55:14;12.65;;;2.53;;
36799;SDS011;22752;51.960;5.886;2023-08-07T09:57:42;8.88;;;2.60;;
36799;SDS011;22752;51.960;5.886;2023-08-07T10:00:08;7.60;;;2.70;;
36799;SDS011;22752;51.960;5.886;2023-08-07T10:02:36;8.98;;;2.75;;
36799;SDS011;22752;51.960;5.886;2023-08-07T10:05:03;8.70;;;2.78;;
36799;SDS011;22752;51.960;5.886;2023-08-07T10:07:33;8.68;;;2.45;;
36799;SDS011;22752;51.960;5.886;2023-08-07T10:09:59;8.80;;;2.80;;
36799;SDS011;22752;51.960;5.886;2023-08-07T10:12:26;9.55;;;2.75;;
36799;SDS011;22752;51.960;5.886;2023-08-07T10:14:53;12.02;;;2.78;;
36799;SDS011;22752;51.960;5.886;2023-08-07T10:17:19;9.40;;;3.67;;
36799;SDS011;22752;51.960;5.886;2023-08-07T10:19:46;15.55;;;2.95;;
36799;SDS011;22752;51.960;5.886;2023-08-07T10:22:12;9.52;;;2.72;;
36799;SDS011;22752;51.960;5.886;2023-08-07T10:24:40;11.32;;;2.70;;
36799;SDS011;22752;51.960;5.886;2023-08-07T10:27:08;8.80;;;2.67;;
36799;SDS011;22752;51.960;5.886;2023-08-07T10:29:36;7.95;;;2.78;;
36799;SDS011;22752;51.960;5.886;2023-08-07T10:32:04;9.50;;;2.88;;
36799;SDS011;22752;51.960;5.886;2023-08-07T10:34:36;9.75;;;2.83;;
36799;SDS011;22752;51.960;5.886;2023-08-07T10:37:05;7.68;;;2.40;;
36799;SDS011;22752;51.960;5.886;2023-08-07T10:39:32;11.63;;;3.53;;
36799;SDS011;22752;51.960;5.886;2023-08-07T10:41:57;12.30;;;3.20;;
36799;SDS011;22752;51.960;5.886;2023-08-07T10:44:24;6.85;;;2.65;;
36799;SDS011;22752;51.960;5.886;2023-08-07T10:46:55;10.60;;;2.92;;
36799;SDS011;22752;51.960;5.886;2023-08-07T10:49:31;10.27;;;2.50;;
36799;SDS011;22752;51.960;5.886;2023-08-07T10:52:08;7.57;;;2.40;;
36799;SDS011;22752;51.960;5.886;2023-08-07T10:54:48;8.82;;;2.58;;
36799;SDS011;22752;51.960;5.886;2023-08-07T10:57:15;11.20;;;3.08;;
36799;SDS011;22752;51.960;5.886;2023-08-07T10:59:49;6.60;;;2.40;;
36799;SDS011;22752;51.960;5.886;2023-08-07T11:02:24;8.70;;;2.60;;
36799;SDS011;22752;51.960;5.886;2023-08-07T11:04:51;6.57;;;2.40;;
36799;SDS011;22752;51.960;5.886;2023-08-07T11:07:28;8.15;;;2.25;;
36799;SDS011;22752;51.960;5.886;2023-08-07T11:09:54;4.40;;;1.80;;
36799;SDS011;22752;51.960;5.886;2023-08-07T11:12:24;8.32;;;2.65;;
36799;SDS011;22752;51.960;5.886;2023-08-07T11:14:51;6.75;;;2.10;;
36799;SDS011;22752;51.960;5.886;2023-08-07T11:17:18;7.70;;;2.33;;
36799;SDS011;22752;51.960;5.886;2023-08-07T11:19:46;7.70;;;2.40;;
36799;SDS011;22752;51.960;5.886;2023-08-07T11:22:13;4.88;;;2.53;;
36799;SDS011;22752;51.960;5.886;2023-08-07T11:24:41;6.55;;;2.10;;
36799;SDS011;22752;51.960;5.886;2023-08-07T11:27:07;7.07;;;2.30;;
36799;SDS011;22752;51.960;5.886;2023-08-07T11:29:33;8.00;;;2.50;;
36799;SDS011;22752;51.960;5.886;2023-08-07T11:31:58;8.48;;;2.40;;
36799;SDS011;22752;51.960;5.886;2023-08-07T11:34:24;6.75;;;2.47;;
36799;SDS011;22752;51.960;5.886;2023-08-07T11:36:50;7.45;;;2.40;;
36799;SDS011;22752;51.960;5.886;2023-08-07T11:39:16;6.38;;;2.60;;
36799;SDS011;22752;51.960;5.886;2023-08-07T11:41:42;8.27;;;2.30;;
36799;SDS011;22752;51.960;5.886;2023-08-07T11:44:09;9.30;;;2.30;;
36799;SDS011;22752;51.960;5.886;2023-08-07T11:46:35;7.60;;;2.47;;
36799;SDS011;22752;51.960;5.886;2023-08-07T11:49:01;9.02;;;2.50;;
36799;SDS011;22752;51.960;5.886;2023-08-07T11:51:29;8.20;;;2.33;;
36799;SDS011;22752;51.960;5.886;2023-08-07T11:53:55;7.07;;;2.70;;
36799;SDS011;22752;51.960;5.886;2023-08-07T11:56:23;9.05;;;2.55;;
36799;SDS011;22752;51.960;5.886;2023-08-07T11:58:50;7.78;;;2.38;;
36799;SDS011;22752;51.960;5.886;2023-08-07T12:01:17;8.45;;;2.28;;
36799;SDS011;22752;51.960;5.886;2023-08-07T12:06:20;7.55;;;2.22;;
36799;SDS011;22752;51.960;5.886;2023-08-07T12:08:48;5.13;;;2.30;;
36799;SDS011;22752;51.960;5.886;2023-08-07T12:11:17;6.60;;;2.00;;
36799;SDS011;22752;51.960;5.886;2023-08-07T12:13:44;5.15;;;2.20;;
36799;SDS011;22752;51.960;5.886;2023-08-07T12:16:10;4.20;;;1.80;;
36799;SDS011;22752;51.960;5.886;2023-08-07T12:18:43;6.05;;;2.00;;
36799;SDS011;22752;51.960;5.886;2023-08-07T12:21:10;8.20;;;2.42;;
36799;SDS011;22752;51.960;5.886;2023-08-07T12:23:36;6.03;;;2.15;;
36799;SDS011;22752;51.960;5.886;2023-08-07T12:26:03;10.52;;;3.10;;
36799;SDS011;22752;51.960;5.886;2023-08-07T12:28:31;5.88;;;2.30;;
36799;SDS011;22752;51.960;5.886;2023-08-07T12:30:57;13.77;;;2.75;;
36799;SDS011;22752;51.960;5.886;2023-08-07T12:33:23;4.30;;;1.73;;
36799;SDS011;22752;51.960;5.886;2023-08-07T12:35:48;7.82;;;2.10;;
36799;SDS011;22752;51.960;5.886;2023-08-07T12:38:14;8.48;;;2.17;;
36799;SDS011;22752;51.960;5.886;2023-08-07T12:40:40;7.75;;;2.17;;
36799;SDS011;22752;51.960;5.886;2023-08-07T12:43:06;9.95;;;2.47;;
36799;SDS011;22752;51.960;5.886;2023-08-07T12:45:32;7.00;;;2.35;;
36799;SDS011;22752;51.960;5.886;2023-08-07T12:48:01;8.05;;;2.60;;
36799;SDS011;22752;51.960;5.886;2023-08-07T12:50:27;6.53;;;2.40;;
36799;SDS011;22752;51.960;5.886;2023-08-07T12:52:53;8.10;;;2.33;;
36799;SDS011;22752;51.960;5.886;2023-08-07T12:55:19;8.35;;;2.30;;
36799;SDS011;22752;51.960;5.886;2023-08-07T12:57:45;11.93;;;2.47;;
36799;SDS011;22752;51.960;5.886;2023-08-07T13:00:11;7.65;;;2.17;;
36799;SDS011;22752;51.960;5.886;2023-08-07T13:02:42;7.38;;;2.08;;
36799;SDS011;22752;51.960;5.886;2023-08-07T13:05:12;11.00;;;2.53;;
36799;SDS011;22752;51.960;5.886;2023-08-07T13:07:39;4.78;;;2.25;;
36799;SDS011;22752;51.960;5.886;2023-08-07T13:10:06;6.57;;;2.50;;
36799;SDS011;22752;51.960;5.886;2023-08-07T13:12:36;6.70;;;2.30;;
36799;SDS011;22752;51.960;5.886;2023-08-07T13:15:03;10.73;;;2.40;;
36799;SDS011;22752;51.960;5.886;2023-08-07T13:17:31;7.70;;;2.40;;
36799;SDS011;22752;51.960;5.886;2023-08-07T13:19:57;8.18;;;2.45;;
36799;SDS011;22752;51.960;5.886;2023-08-07T13:22:24;9.10;;;2.30;;
36799;SDS011;22752;51.960;5.886;2023-08-07T13:24:50;5.75;;;2.03;;
36799;SDS011;22752;51.960;5.886;2023-08-07T13:27:16;5.20;;;2.30;;
36799;SDS011;22752;51.960;5.886;2023-08-07T13:29:41;6.32;;;2.28;;
36799;SDS011;22752;51.960;5.886;2023-08-07T13:32:07;3.95;;;1.70;;
36799;SDS011;22752;51.960;5.886;2023-08-07T13:34:36;5.13;;;2.13;;
36799;SDS011;22752;51.960;5.886;2023-08-07T13:37:02;5.80;;;1.90;;
36799;SDS011;22752;51.960;5.886;2023-08-07T13:39:32;3.83;;;1.95;;
36799;SDS011;22752;51.960;5.886;2023-08-07T13:41:58;6.65;;;1.80;;
36799;SDS011;22752;51.960;5.886;2023-08-07T13:44:25;3.35;;;1.63;;
36799;SDS011;22752;51.960;5.886;2023-08-07T13:46:50;5.38;;;1.52;;
36799;SDS011;22752;51.960;5.886;2023-08-07T13:49:16;5.65;;;1.70;;
36799;SDS011;22752;51.960;5.886;2023-08-07T13:51:42;5.40;;;1.85;;
36799;SDS011;22752;51.960;5.886;2023-08-07T13:54:08;3.45;;;1.73;;
36799;SDS011;22752;51.960;5.886;2023-08-07T13:56:34;2.53;;;1.25;;
36799;SDS011;22752;51.960;5.886;2023-08-07T13:59:00;4.47;;;2.00;;
36799;SDS011;22752;51.960;5.886;2023-08-07T14:01:26;9.45;;;2.28;;
36799;SDS011;22752;51.960;5.886;2023-08-07T14:03:53;4.53;;;1.70;;
36799;SDS011;22752;51.960;5.886;2023-08-07T14:06:19;5.63;;;1.70;;
36799;SDS011;22752;51.960;5.886;2023-08-07T14:08:45;3.40;;;1.50;;
36799;SDS011;22752;51.960;5.886;2023-08-07T14:11:11;9.73;;;1.77;;
36799;SDS011;22752;51.960;5.886;2023-08-07T14:13:39;3.47;;;1.40;;
36799;SDS011;22752;51.960;5.886;2023-08-07T14:16:05;4.43;;;1.50;;
36799;SDS011;22752;51.960;5.886;2023-08-07T14:18:31;5.32;;;1.83;;
36799;SDS011;22752;51.960;5.886;2023-08-07T14:20:56;5.15;;;1.80;;
36799;SDS011;22752;51.960;5.886;2023-08-07T14:23:22;6.03;;;1.65;;
36799;SDS011;22752;51.960;5.886;2023-08-07T14:25:48;3.78;;;1.80;;
36799;SDS011;22752;51.960;5.886;2023-08-07T14:28:17;5.40;;;1.58;;
36799;SDS011;22752;51.960;5.886;2023-08-07T14:30:44;8.45;;;1.60;;
36799;SDS011;22752;51.960;5.886;2023-08-07T14:33:09;3.70;;;1.50;;
36799;SDS011;22752;51.960;5.886;2023-08-07T14:35:35;5.22;;;1.52;;
36799;SDS011;22752;51.960;5.886;2023-08-07T14:38:01;4.43;;;1.52;;
36799;SDS011;22752;51.960;5.886;2023-08-07T14:40:26;4.63;;;1.65;;
36799;SDS011;22752;51.960;5.886;2023-08-07T14:42:53;3.85;;;1.20;;
36799;SDS011;22752;51.960;5.886;2023-08-07T14:45:19;3.63;;;1.70;;
36799;SDS011;22752;51.960;5.886;2023-08-07T14:47:46;6.00;;;1.45;;
36799;SDS011;22752;51.960;5.886;2023-08-07T14:50:11;2.78;;;1.50;;
36799;SDS011;22752;51.960;5.886;2023-08-07T14:52:37;2.00;;;1.42;;
36799;SDS011;22752;51.960;5.886;2023-08-07T14:55:03;3.63;;;1.45;;